Latimer, Iowa
Current Conditions -  °F | °C
As of 5:15 PM on Wednesday 26 Nov 2014 (Local Time) from KCAV Reporting Station
Light Snow Light Snow  
Wind Chill: 15°   Ceiling: 200
Heat Index: 25°   Visibility: 0.5mi
Dew Point: 25°   Wind: 10mph
Humidity: 100%   Direction: 350°N
Pressure: 30.22"   Gusts: NA
Location:  42.76°N, 93.37°W
Report Text: KCAV 262315Z AUTO 35009KT 1/2SM -SN OVC002 M04/M04 A3022 RMK AO2
Loading
Personal Weather Stations






























Interactive Weather Map New forecast layout! Learn more

10-Day Weather Forecast

Advertisements
Track Severe Weather on mobile